Time;durP1;ratioP1;P1;durP2;ratioP2;P2;SDS_P1;SDS_P2;PMS_P1;PMS_P2;Temp;Humidity;BMP_temperature;BMP_pressure;BME280_temperature;BME280_humidity;BME280_pressure;Samples;Min_cycle;Max_cycle;Signal;HPM_P1;HPM_P2
2023/08/26 00:02:12;;;;;;;9.85;6.25;;;;;;;;;;6213531;23;20016;-87
2023/08/26 00:04:38;;;;;;;10.85;6.60;;;;;;;;;;6241873;23;20035;-87
2023/08/26 00:07:06;;;;;;;11.45;6.53;;;;;;;;;;6213016;23;20337;-88
2023/08/26 00:09:32;;;;;;;11.00;7.28;;;;;;;;;;6213725;23;20016;-88
2023/08/26 00:11:58;;;;;;;10.55;6.65;;;;;;;;;;6213930;23;20008;-87
2023/08/26 00:14:24;;;;;;;13.30;7.07;;;;;;;;;;6213729;23;20054;-88
2023/08/26 00:16:51;;;;;;;12.25;6.25;;;;;;;;;;6214281;23;20016;-88
2023/08/26 00:19:17;;;;;;;10.40;6.80;;;;;;;;;;6240709;23;20012;-88
2023/08/26 00:21:43;;;;;;;12.88;6.53;;;;;;;;;;6240902;23;20012;-88
2023/08/26 00:24:10;;;;;;;9.27;6.22;;;;;;;;;;6240458;23;20306;-88
2023/08/26 00:26:36;;;;;;;10.10;6.32;;;;;;;;;;6241466;23;20345;-88
2023/08/26 00:29:03;;;;;;;12.27;6.72;;;;;;;;;;6240685;23;20023;-88
2023/08/26 00:31:29;;;;;;;9.45;5.57;;;;;;;;;;6213725;23;20338;-88
2023/08/26 00:33:55;;;;;;;11.55;6.00;;;;;;;;;;6240006;23;20442;-89
2023/08/26 00:36:21;;;;;;;11.45;6.15;;;;;;;;;;6214062;23;20409;-88
2023/08/26 00:38:47;;;;;;;8.30;5.93;;;;;;;;;;6241660;23;20074;-87
2023/08/26 00:41:13;;;;;;;9.48;5.90;;;;;;;;;;6240515;23;20012;-87
2023/08/26 00:43:39;;;;;;;9.77;5.75;;;;;;;;;;6214457;23;20023;-88
2023/08/26 00:46:05;;;;;;;7.45;5.32;;;;;;;;;;6240059;23;20345;-88
2023/08/26 00:48:31;;;;;;;11.57;6.68;;;;;;;;;;6240614;23;20012;-88
2023/08/26 00:50:57;;;;;;;10.02;5.75;;;;;;;;;;6240274;23;20084;-88
2023/08/26 00:53:23;;;;;;;9.55;6.10;;;;;;;;;;6241341;23;20048;-88
2023/08/26 00:55:51;;;;;;;8.20;5.10;;;;;;;;;;6214372;23;20016;-89
2023/08/26 00:58:18;;;;;;;15.45;5.68;;;;;;;;;;6213474;23;20016;-88
2023/08/26 01:00:44;;;;;;;9.85;5.15;;;;;;;;;;6241048;23;20126;-88
2023/08/26 01:03:10;;;;;;;9.32;5.03;;;;;;;;;;6239768;23;20013;-89
2023/08/26 01:05:36;;;;;;;7.78;4.85;;;;;;;;;;6241557;23;20095;-89
2023/08/26 01:08:04;;;;;;;9.98;5.60;;;;;;;;;;6240978;23;20016;-89
2023/08/26 01:10:45;;;;;;;8.07;4.68;;;;;;;;;;6213879;23;20016;-89
2023/08/26 01:13:14;;;;;;;7.47;4.65;;;;;;;;;;6239456;23;20329;-89
2023/08/26 01:15:42;;;;;;;7.63;4.22;;;;;;;;;;6213990;23;20017;-88
2023/08/26 01:18:08;;;;;;;8.20;4.57;;;;;;;;;;6212906;23;20012;-88
2023/08/26 01:20:35;;;;;;;8.10;5.00;;;;;;;;;;6241514;23;20016;-88
2023/08/26 01:23:01;;;;;;;7.05;4.60;;;;;;;;;;6213996;23;20012;-88
2023/08/26 01:25:27;;;;;;;5.00;4.07;;;;;;;;;;6241021;23;20337;-88
2023/08/26 01:27:54;;;;;;;7.78;4.32;;;;;;;;;;6240337;23;20392;-88
2023/08/26 01:30:21;;;;;;;6.63;4.70;;;;;;;;;;6213608;23;20027;-88
2023/08/26 01:33:20;;;;;;;5.97;4.07;;;;;;;;;;6213949;23;20062;-88
2023/08/26 01:35:47;;;;;;;7.70;4.13;;;;;;;;;;6150962;23;20024;-88
2023/08/26 01:38:16;;;;;;;6.60;4.03;;;;;;;;;;6241806;23;20042;-88
2023/08/26 01:40:43;;;;;;;7.47;4.32;;;;;;;;;;6243298;23;20016;-88
2023/08/26 01:43:10;;;;;;;7.93;4.10;;;;;;;;;;6242158;23;20027;-89
2023/08/26 01:45:36;;;;;;;5.70;4.30;;;;;;;;;;6216224;23;20052;-90
2023/08/26 01:48:02;;;;;;;6.35;3.60;;;;;;;;;;6241646;23;20067;-89
2023/08/26 01:50:28;;;;;;;7.43;5.38;;;;;;;;;;6242674;23;20082;-90
2023/08/26 01:52:54;;;;;;;7.70;4.13;;;;;;;;;;6215647;23;20016;-89
2023/08/26 01:55:20;;;;;;;4.93;3.55;;;;;;;;;;6215506;23;20032;-90
2023/08/26 01:57:46;;;;;;;6.13;3.75;;;;;;;;;;6242269;23;20394;-89
2023/08/26 02:00:12;;;;;;;5.15;3.67;;;;;;;;;;6241762;23;20012;-88
2023/08/26 02:02:38;;;;;;;5.50;3.67;;;;;;;;;;6242275;23;20062;-89
2023/08/26 02:05:04;;;;;;;5.57;3.50;;;;;;;;;;6215054;23;20016;-90
2023/08/26 02:07:30;;;;;;;6.80;3.88;;;;;;;;;;6242284;23;20048;-89
2023/08/26 02:09:56;;;;;;;4.95;3.33;;;;;;;;;;6241816;23;20016;-89
2023/08/26 02:12:22;;;;;;;5.80;3.55;;;;;;;;;;6215373;23;20501;-90
2023/08/26 02:14:48;;;;;;;5.35;3.70;;;;;;;;;;6242432;23;20023;-89
2023/08/26 02:17:14;;;;;;;6.40;3.95;;;;;;;;;;6214006;23;20016;-89
2023/08/26 02:19:40;;;;;;;5.25;3.40;;;;;;;;;;6242717;23;20012;-89
2023/08/26 02:22:06;;;;;;;4.07;3.40;;;;;;;;;;6215224;23;20016;-91
2023/08/26 02:24:32;;;;;;;7.13;4.97;;;;;;;;;;6215334;23;20023;-91
2023/08/26 02:26:58;;;;;;;6.30;3.63;;;;;;;;;;6242022;23;20326;-89
2023/08/26 02:29:24;;;;;;;5.45;3.53;;;;;;;;;;6190611;23;20023;-90
2023/08/26 02:31:50;;;;;;;5.25;3.20;;;;;;;;;;6241710;23;20099;-90
2023/08/26 02:34:16;;;;;;;4.50;3.85;;;;;;;;;;6241780;23;20417;-90
2023/08/26 02:36:42;;;;;;;5.57;3.53;;;;;;;;;;6242462;23;20052;-90
2023/08/26 02:39:08;;;;;;;4.28;3.30;;;;;;;;;;6242047;23;20016;-90
2023/08/26 02:41:34;;;;;;;4.70;3.30;;;;;;;;;;6215865;23;20047;-90
2023/08/26 02:44:01;;;;;;;4.35;3.03;;;;;;;;;;6241954;23;20088;-91
2023/08/26 02:46:27;;;;;;;4.75;3.38;;;;;;;;;;6241637;23;20087;-90
2023/08/26 02:48:53;;;;;;;5.28;3.40;;;;;;;;;;6241952;23;20050;-90
2023/08/26 02:51:19;;;;;;;4.85;3.15;;;;;;;;;;6241521;23;20102;-91
2023/08/26 02:53:45;;;;;;;6.63;3.55;;;;;;;;;;6215735;23;20008;-91
2023/08/26 02:56:11;;;;;;;4.88;3.40;;;;;;;;;;6214486;23;20012;-90
2023/08/26 02:58:37;;;;;;;5.30;3.22;;;;;;;;;;6215629;23;20469;-89
2023/08/26 03:01:03;;;;;;;6.80;3.38;;;;;;;;;;6241638;23;20012;-90
2023/08/26 03:03:29;;;;;;;4.18;3.10;;;;;;;;;;6241597;23;20588;-90
2023/08/26 03:05:58;;;;;;;5.25;3.22;;;;;;;;;;6215129;23;20049;-90
2023/08/26 03:08:24;;;;;;;5.30;3.45;;;;;;;;;;6215007;23;20081;-91
2023/08/26 03:11:16;;;;;;;5.03;2.78;;;;;;;;;;6242361;23;20008;-91
2023/08/26 03:13:42;;;;;;;4.65;3.20;;;;;;;;;;6236271;23;20011;-91
2023/08/26 03:16:09;;;;;;;4.85;3.42;;;;;;;;;;6241285;23;20091;-90
2023/08/26 03:18:35;;;;;;;5.75;3.10;;;;;;;;;;6214413;23;20516;-90
2023/08/26 03:21:05;;;;;;;4.60;3.17;;;;;;;;;;6241710;23;20092;-90
2023/08/26 03:23:31;;;;;;;5.05;3.63;;;;;;;;;;6241983;23;20047;-90
2023/08/26 03:25:57;;;;;;;3.97;3.17;;;;;;;;;;6241605;23;20035;-91
2023/08/26 03:28:23;;;;;;;4.55;3.58;;;;;;;;;;6241410;23;20469;-89
2023/08/26 03:30:49;;;;;;;4.05;3.15;;;;;;;;;;6241543;23;20043;-90
2023/08/26 03:33:15;;;;;;;3.83;2.95;;;;;;;;;;6241090;23;20163;-90
2023/08/26 03:35:42;;;;;;;4.50;2.85;;;;;;;;;;6242260;23;20019;-91
2023/08/26 03:38:08;;;;;;;4.20;3.40;;;;;;;;;;6241488;23;20008;-91
2023/08/26 03:40:34;;;;;;;5.13;2.95;;;;;;;;;;6242156;23;20101;-90
2023/08/26 03:43:01;;;;;;;4.43;3.15;;;;;;;;;;6240903;23;20008;-91
2023/08/26 03:45:29;;;;;;;5.13;3.22;;;;;;;;;;6241910;23;20015;-90
2023/08/26 03:47:55;;;;;;;5.60;2.92;;;;;;;;;;6213705;23;20412;-89
2023/08/26 03:50:22;;;;;;;4.55;3.38;;;;;;;;;;6213320;23;20042;-91
2023/08/26 03:52:48;;;;;;;5.70;3.67;;;;;;;;;;6241444;23;20500;-90
2023/08/26 03:55:14;;;;;;;4.15;3.40;;;;;;;;;;6214291;23;20031;-89
2023/08/26 03:57:40;;;;;;;4.30;3.15;;;;;;;;;;6240902;23;20039;-90
2023/08/26 04:00:07;;;;;;;5.97;3.63;;;;;;;;;;6241077;23;20446;-90
2023/08/26 04:02:34;;;;;;;4.72;3.15;;;;;;;;;;6242353;23;20457;-89
2023/08/26 04:05:00;;;;;;;4.85;3.22;;;;;;;;;;6241417;23;20016;-91
2023/08/26 04:07:26;;;;;;;6.05;3.58;;;;;;;;;;6241342;23;20020;-90
2023/08/26 04:09:52;;;;;;;5.40;3.65;;;;;;;;;;6242044;23;20768;-90
2023/08/26 04:12:18;;;;;;;5.30;3.28;;;;;;;;;;6213182;23;20050;-90
2023/08/26 04:14:43;;;;;;;5.28;2.88;;;;;;;;;;6241529;23;20016;-90
2023/08/26 04:17:09;;;;;;;5.20;3.53;;;;;;;;;;6213646;23;20016;-90
2023/08/26 04:19:35;;;;;;;4.13;3.15;;;;;;;;;;6242022;23;20337;-90
2023/08/26 04:22:02;;;;;;;6.35;3.40;;;;;;;;;;6213387;23;20012;-90
2023/08/26 04:24:28;;;;;;;6.32;4.25;;;;;;;;;;6241022;23;20012;-90
2023/08/26 04:26:54;;;;;;;4.20;3.58;;;;;;;;;;6212697;23;20023;-90
2023/08/26 04:29:20;;;;;;;4.97;3.65;;;;;;;;;;6241757;23;20012;-91
2023/08/26 04:31:46;;;;;;;4.97;3.33;;;;;;;;;;6214854;23;20508;-90
2023/08/26 04:34:12;;;;;;;5.15;3.67;;;;;;;;;;6240889;23;20012;-90
2023/08/26 04:36:38;;;;;;;4.88;3.53;;;;;;;;;;6214760;23;20012;-91
2023/08/26 04:39:10;;;;;;;3.72;2.95;;;;;;;;;;6240682;23;20016;-90
2023/08/26 04:41:38;;;;;;;4.22;3.45;;;;;;;;;;6213410;23;20062;-90
2023/08/26 04:44:05;;;;;;;4.75;3.63;;;;;;;;;;6214095;23;20023;-92
2023/08/26 04:46:31;;;;;;;5.47;3.70;;;;;;;;;;6241497;23;20016;-90
2023/08/26 04:48:57;;;;;;;4.22;3.28;;;;;;;;;;6241445;23;20019;-91
2023/08/26 04:51:23;;;;;;;5.97;3.85;;;;;;;;;;6214456;23;20024;-90
2023/08/26 04:53:49;;;;;;;5.22;3.70;;;;;;;;;;6241480;23;20337;-91
2023/08/26 04:56:15;;;;;;;5.35;3.53;;;;;;;;;;6240132;23;20024;-90
2023/08/26 04:58:41;;;;;;;5.25;3.70;;;;;;;;;;6241905;23;20010;-91
2023/08/26 05:01:07;;;;;;;6.05;3.30;;;;;;;;;;6240477;23;20008;-90
2023/08/26 05:03:33;;;;;;;4.85;3.83;;;;;;;;;;6214700;23;20338;-92
2023/08/26 05:05:59;;;;;;;5.43;3.15;;;;;;;;;;6241222;23;20027;-91
2023/08/26 05:08:25;;;;;;;4.15;3.50;;;;;;;;;;6241122;23;20345;-92
2023/08/26 05:10:51;;;;;;;4.22;3.03;;;;;;;;;;6215512;23;20016;-90
2023/08/26 05:13:17;;;;;;;5.10;3.10;;;;;;;;;;6242854;23;20015;-91
2023/08/26 05:15:43;;;;;;;6.65;3.70;;;;;;;;;;6243661;23;20020;-90
2023/08/26 05:18:09;;;;;;;5.82;3.63;;;;;;;;;;6242625;23;20012;-92
2023/08/26 05:20:35;;;;;;;5.47;3.72;;;;;;;;;;6213525;23;20012;-89
2023/08/26 05:23:01;;;;;;;4.47;3.72;;;;;;;;;;6217129;23;20115;-96
2023/08/26 05:25:27;;;;;;;5.80;3.33;;;;;;;;;;6228728;23;20020;-95
2023/08/26 05:27:54;;;;;;;8.07;3.83;;;;;;;;;;6248808;23;20012;-94
2023/08/26 05:30:20;;;;;;;6.03;4.00;;;;;;;;;;6244341;23;20012;-89
2023/08/26 05:32:46;;;;;;;5.28;3.58;;;;;;;;;;6242345;23;20050;-89
2023/08/26 05:35:12;;;;;;;7.70;4.60;;;;;;;;;;6241357;23;20067;-92
2023/08/26 05:37:43;;;;;;;6.95;4.13;;;;;;;;;;6243667;23;20060;-90
2023/08/26 05:40:09;;;;;;;8.32;4.78;;;;;;;;;;6215093;23;20031;-90
2023/08/26 05:42:35;;;;;;;7.78;4.60;;;;;;;;;;6243674;23;20012;-90
2023/08/26 05:45:01;;;;;;;7.28;3.72;;;;;;;;;;6215154;23;20097;-88
2023/08/26 05:47:27;;;;;;;6.47;4.20;;;;;;;;;;6215809;23;20016;-93
2023/08/26 05:49:53;;;;;;;7.15;3.80;;;;;;;;;;6242751;23;20019;-91
2023/08/26 05:52:19;;;;;;;6.88;4.13;;;;;;;;;;6243240;23;20520;-91
2023/08/26 05:54:45;;;;;;;8.43;4.53;;;;;;;;;;6242537;23;20055;-87
2023/08/26 05:57:12;;;;;;;6.13;4.00;;;;;;;;;;6242376;23;20051;-88
2023/08/26 05:59:38;;;;;;;7.20;4.07;;;;;;;;;;6242791;23;20455;-88
2023/08/26 06:02:04;;;;;;;5.18;3.92;;;;;;;;;;6242114;23;20019;-86
2023/08/26 06:04:30;;;;;;;6.78;4.13;;;;;;;;;;6244310;23;20008;-93
2023/08/26 06:06:59;;;;;;;6.43;4.90;;;;;;;;;;6245191;23;20103;-92
2023/08/26 06:09:25;;;;;;;6.78;4.05;;;;;;;;;;6243509;23;20442;-91
2023/08/26 06:11:51;;;;;;;6.85;4.68;;;;;;;;;;6243578;23;20012;-86
2023/08/26 06:14:18;;;;;;;6.57;4.30;;;;;;;;;;6241889;23;20023;-91
2023/08/26 06:16:44;;;;;;;8.93;4.75;;;;;;;;;;6243618;23;20018;-91
2023/08/26 06:19:10;;;;;;;7.25;5.25;;;;;;;;;;6242776;23;20345;-90
2023/08/26 06:21:36;;;;;;;6.45;4.68;;;;;;;;;;6217630;23;20095;-92
2023/08/26 06:24:02;;;;;;;5.38;4.18;;;;;;;;;;6216800;23;20047;-89
2023/08/26 06:26:28;;;;;;;7.57;4.60;;;;;;;;;;6241861;23;20051;-88
2023/08/26 06:28:54;;;;;;;6.40;4.72;;;;;;;;;;6215613;23;20023;-89
2023/08/26 06:31:20;;;;;;;7.80;4.95;;;;;;;;;;6215608;23;20016;-89
2023/08/26 06:33:46;;;;;;;6.55;5.35;;;;;;;;;;6217027;23;20341;-90
2023/08/26 06:36:12;;;;;;;7.00;5.20;;;;;;;;;;6241084;23;20012;-89
2023/08/26 06:38:38;;;;;;;7.82;5.50;;;;;;;;;;6215371;23;20020;-89
2023/08/26 06:41:04;;;;;;;8.27;5.55;;;;;;;;;;6214985;23;20087;-91
2023/08/26 06:43:30;;;;;;;10.20;6.05;;;;;;;;;;6242473;23;20088;-92
2023/08/26 06:45:56;;;;;;;10.65;6.63;;;;;;;;;;6215290;23;20047;-92
2023/08/26 06:48:22;;;;;;;11.88;7.63;;;;;;;;;;6190142;23;20428;-89
2023/08/26 06:50:48;;;;;;;10.15;7.10;;;;;;;;;;6214575;23;20047;-88
2023/08/26 06:53:20;;;;;;;11.18;6.72;;;;;;;;;;6240126;23;20126;-92
2023/08/26 06:55:47;;;;;;;8.98;6.47;;;;;;;;;;6216741;23;20422;-91
2023/08/26 06:58:12;;;;;;;8.68;6.38;;;;;;;;;;6242696;23;20016;-91
2023/08/26 07:00:39;;;;;;;11.25;8.00;;;;;;;;;;6242634;23;20009;-92
2023/08/26 07:03:05;;;;;;;13.43;9.30;;;;;;;;;;6242097;23;20012;-89
2023/08/26 07:05:31;;;;;;;14.23;9.05;;;;;;;;;;6240641;23;20020;-90
2023/08/26 07:07:57;;;;;;;14.20;8.73;;;;;;;;;;6215022;23;20344;-91
2023/08/26 07:10:23;;;;;;;12.63;8.75;;;;;;;;;;6244066;23;20018;-92
2023/08/26 07:12:49;;;;;;;12.27;8.15;;;;;;;;;;6217480;23;20087;-91
2023/08/26 07:15:15;;;;;;;12.38;8.32;;;;;;;;;;6214477;23;20370;-91
2023/08/26 07:17:41;;;;;;;12.38;8.40;;;;;;;;;;6191638;23;20035;-92
2023/08/26 07:20:10;;;;;;;10.05;7.32;;;;;;;;;;6189257;23;20039;-93
2023/08/26 07:22:36;;;;;;;13.48;8.65;;;;;;;;;;6242130;23;20023;-91
2023/08/26 07:25:02;;;;;;;14.55;9.52;;;;;;;;;;6215449;23;20012;-86
2023/08/26 07:27:28;;;;;;;13.05;8.25;;;;;;;;;;6242782;23;20091;-89
2023/08/26 07:29:54;;;;;;;16.58;8.93;;;;;;;;;;6241929;23;20019;-93
2023/08/26 07:32:20;;;;;;;12.52;8.95;;;;;;;;;;6240735;23;20061;-89
2023/08/26 07:34:46;;;;;;;10.85;7.90;;;;;;;;;;6241466;23;20059;-90
2023/08/26 07:37:12;;;;;;;17.33;9.38;;;;;;;;;;6241409;23;20016;-91
2023/08/26 07:39:38;;;;;;;12.80;8.43;;;;;;;;;;6242288;23;20012;-92
2023/08/26 07:42:04;;;;;;;14.40;8.57;;;;;;;;;;6247461;23;20019;-92
2023/08/26 07:44:30;;;;;;;11.95;8.48;;;;;;;;;;6229925;23;20051;-91
2023/08/26 07:46:56;;;;;;;15.40;9.18;;;;;;;;;;6253660;23;20016;-96
2023/08/26 07:49:22;;;;;;;11.98;8.50;;;;;;;;;;6226831;23;20476;-94
2023/08/26 07:51:48;;;;;;;13.27;9.02;;;;;;;;;;6249682;23;20011;-94
2023/08/26 07:54:14;;;;;;;19.75;10.38;;;;;;;;;;6247780;23;20154;-95
2023/08/26 07:56:41;;;;;;;13.68;9.30;;;;;;;;;;6227890;23;20016;-90
2023/08/26 07:59:06;;;;;;;11.85;7.95;;;;;;;;;;6253653;23;20007;-94
2023/08/26 08:01:33;;;;;;;12.50;8.82;;;;;;;;;;6220103;23;20019;-90
2023/08/26 08:03:59;;;;;;;11.93;8.48;;;;;;;;;;6242548;23;20012;-94
2023/08/26 08:06:24;;;;;;;12.90;9.35;;;;;;;;;;6246271;23;20546;-84
2023/08/26 08:08:51;;;;;;;14.18;10.27;;;;;;;;;;6241907;23;20016;-85
2023/08/26 08:11:17;;;;;;;9.77;7.05;;;;;;;;;;6241490;23;20016;-88
2023/08/26 08:13:43;;;;;;;10.57;7.93;;;;;;;;;;6214508;23;20020;-85
2023/08/26 08:16:09;;;;;;;13.32;8.98;;;;;;;;;;6212063;23;20059;-86
2023/08/26 08:18:35;;;;;;;8.00;6.38;;;;;;;;;;6188835;23;20016;-85
2023/08/26 08:21:01;;;;;;;12.75;8.75;;;;;;;;;;6214056;23;20062;-85
2023/08/26 08:23:27;;;;;;;11.32;8.13;;;;;;;;;;6213878;23;20012;-86
2023/08/26 08:25:53;;;;;;;11.00;8.10;;;;;;;;;;6214893;23;20448;-86
2023/08/26 08:28:19;;;;;;;10.50;7.20;;;;;;;;;;6188448;23;20066;-85
2023/08/26 08:30:45;;;;;;;11.10;8.60;;;;;;;;;;6214706;23;20406;-86
2023/08/26 08:33:11;;;;;;;12.43;9.30;;;;;;;;;;6212368;23;20019;-85
2023/08/26 08:35:37;;;;;;;11.93;8.88;;;;;;;;;;6241293;23;20012;-86
2023/08/26 08:38:03;;;;;;;11.20;8.55;;;;;;;;;;6214137;23;20334;-86
2023/08/26 08:40:29;;;;;;;9.68;8.23;;;;;;;;;;6214094;23;20097;-86
2023/08/26 08:42:58;;;;;;;12.07;8.38;;;;;;;;;;6213926;23;20369;-84
2023/08/26 08:45:25;;;;;;;10.52;8.52;;;;;;;;;;6243217;23;20012;-84
2023/08/26 08:47:53;;;;;;;11.70;8.85;;;;;;;;;;6214598;23;20031;-82
2023/08/26 08:50:20;;;;;;;10.95;7.88;;;;;;;;;;6242947;23;20012;-83
2023/08/26 08:52:48;;;;;;;13.13;9.27;;;;;;;;;;6242301;23;20099;-83
2023/08/26 08:55:14;;;;;;;10.05;7.38;;;;;;;;;;6241966;23;20102;-84
2023/08/26 08:57:40;;;;;;;9.52;6.63;;;;;;;;;;6214905;23;20047;-83
2023/08/26 09:00:08;;;;;;;8.52;7.45;;;;;;;;;;6243017;23;20012;-83
2023/08/26 09:02:36;;;;;;;7.50;6.32;;;;;;;;;;6214643;23;20023;-84
2023/08/26 09:05:02;;;;;;;7.85;6.22;;;;;;;;;;6242595;23;20109;-88
2023/08/26 09:07:29;;;;;;;8.50;6.97;;;;;;;;;;6215637;23;20323;-84
2023/08/26 09:09:59;;;;;;;10.90;7.43;;;;;;;;;;6215847;23;20016;-86
2023/08/26 09:12:25;;;;;;;8.60;6.90;;;;;;;;;;6215649;23;20016;-86
2023/08/26 09:14:51;;;;;;;9.23;7.38;;;;;;;;;;6215617;23;20019;-87
2023/08/26 09:17:20;;;;;;;9.02;7.40;;;;;;;;;;6188674;23;20027;-86
2023/08/26 09:19:59;;;;;;;8.55;7.55;;;;;;;;;;6191300;23;20089;-86
2023/08/26 09:22:26;;;;;;;8.38;6.45;;;;;;;;;;6215256;23;20016;-87
2023/08/26 09:24:56;;;;;;;9.88;6.75;;;;;;;;;;6190773;23;20015;-89
2023/08/26 09:27:25;;;;;;;8.55;5.80;;;;;;;;;;6215375;23;20012;-88
2023/08/26 09:29:54;;;;;;;7.55;6.00;;;;;;;;;;6190344;23;20087;-88
2023/08/26 09:32:32;;;;;;;11.35;6.53;;;;;;;;;;6241502;23;20329;-84
2023/08/26 09:35:08;;;;;;;11.13;5.60;;;;;;;;;;6241256;23;20521;-86
2023/08/26 09:37:34;;;;;;;5.63;4.55;;;;;;;;;;6242728;23;20024;-86
2023/08/26 09:40:00;;;;;;;8.27;6.07;;;;;;;;;;6217318;23;20096;-87
2023/08/26 09:42:26;;;;;;;7.25;4.95;;;;;;;;;;6215662;23;20445;-85
2023/08/26 09:44:56;;;;;;;10.02;4.93;;;;;;;;;;6214961;23;20046;-86
2023/08/26 09:47:22;;;;;;;7.43;5.20;;;;;;;;;;6241293;23;20338;-85
2023/08/26 09:49:49;;;;;;;4.93;4.03;;;;;;;;;;6215361;23;20016;-85
2023/08/26 09:52:15;;;;;;;5.75;4.25;;;;;;;;;;6214967;23;20027;-84
2023/08/26 09:54:43;;;;;;;7.70;4.20;;;;;;;;;;6242599;23;20023;-85
2023/08/26 09:57:09;;;;;;;5.18;3.85;;;;;;;;;;6241569;23;20396;-83
2023/08/26 09:59:35;;;;;;;6.13;4.50;;;;;;;;;;6215185;23;20042;-84
2023/08/26 10:02:03;;;;;;;9.15;4.88;;;;;;;;;;6215188;23;20093;-86
2023/08/26 10:04:32;;;;;;;4.43;3.42;;;;;;;;;;6192040;23;20020;-85
2023/08/26 10:06:59;;;;;;;4.75;2.88;;;;;;;;;;6243032;23;20087;-84
2023/08/26 10:09:37;;;;;;;5.10;2.17;;;;;;;;;;6242483;23;20056;-84
2023/08/26 10:12:05;;;;;;;3.60;1.50;;;;;;;;;;6242777;23;20008;-85
2023/08/26 10:14:33;;;;;;;3.85;1.42;;;;;;;;;;6215030;23;20385;-84
2023/08/26 10:17:02;;;;;;;3.10;1.38;;;;;;;;;;6213863;23;20034;-85
2023/08/26 10:19:29;;;;;;;1.98;1.48;;;;;;;;;;6216714;23;20016;-84
2023/08/26 10:21:56;;;;;;;3.22;1.45;;;;;;;;;;6215380;23;20095;-87
2023/08/26 10:24:22;;;;;;;1.83;1.40;;;;;;;;;;6243155;23;20016;-85
2023/08/26 10:26:48;;;;;;;4.85;1.60;;;;;;;;;;6215279;23;20024;-80
2023/08/26 10:29:15;;;;;;;2.75;1.73;;;;;;;;;;6241329;23;20031;-82
2023/08/26 10:31:43;;;;;;;3.20;1.10;;;;;;;;;;6214833;23;20016;-82
2023/08/26 10:34:09;;;;;;;2.00;1.30;;;;;;;;;;6241038;23;20016;-83
2023/08/26 10:36:39;;;;;;;2.60;1.30;;;;;;;;;;6215632;23;20099;-83
2023/08/26 10:39:13;;;;;;;2.72;1.35;;;;;;;;;;6214566;23;20095;-84
2023/08/26 10:41:39;;;;;;;4.47;1.20;;;;;;;;;;6242785;23;20012;-83
2023/08/26 10:44:05;;;;;;;1.75;1.35;;;;;;;;;;6241224;23;20073;-84
2023/08/26 10:46:35;;;;;;;4.18;1.40;;;;;;;;;;6214616;23;20016;-82
2023/08/26 10:49:03;;;;;;;4.70;1.38;;;;;;;;;;6241464;23;20012;-81
2023/08/26 10:51:29;;;;;;;2.78;1.50;;;;;;;;;;6214793;23;20086;-84
2023/08/26 10:54:03;;;;;;;2.50;1.10;;;;;;;;;;6214776;23;20024;-84
2023/08/26 10:56:33;;;;;;;3.20;1.10;;;;;;;;;;6189536;23;20031;-84
2023/08/26 10:59:03;;;;;;;3.13;1.02;;;;;;;;;;6240783;23;20346;-84
2023/08/26 11:01:30;;;;;;;1.92;1.30;;;;;;;;;;6241260;23;20346;-85
2023/08/26 11:03:57;;;;;;;2.75;1.15;;;;;;;;;;6214856;23;20107;-83
2023/08/26 11:06:25;;;;;;;1.73;1.00;;;;;;;;;;6214875;23;20091;-84
2023/08/26 11:08:58;;;;;;;1.92;0.90;;;;;;;;;;6240654;23;20018;-86
2023/08/26 11:11:25;;;;;;;1.73;0.90;;;;;;;;;;6241650;23;20015;-87
2023/08/26 11:13:51;;;;;;;1.38;1.08;;;;;;;;;;6213540;23;20019;-87
2023/08/26 11:16:18;;;;;;;3.20;1.30;;;;;;;;;;6213865;23;20051;-84
2023/08/26 11:18:44;;;;;;;1.70;1.38;;;;;;;;;;6241020;23;20022;-85
2023/08/26 11:21:10;;;;;;;1.77;0.90;;;;;;;;;;6214152;23;20020;-86
2023/08/26 11:23:39;;;;;;;3.33;1.10;;;;;;;;;;6242176;23;20007;-88
2023/08/26 11:26:07;;;;;;;1.60;0.90;;;;;;;;;;6240580;23;20345;-87
2023/08/26 11:28:33;;;;;;;2.45;0.73;;;;;;;;;;6241002;23;20099;-84
2023/08/26 11:31:00;;;;;;;1.40;0.85;;;;;;;;;;6214476;23;20051;-85
2023/08/26 11:33:27;;;;;;;1.08;0.80;;;;;;;;;;6214016;23;20019;-84
2023/08/26 11:35:53;;;;;;;1.63;0.80;;;;;;;;;;6214959;23;20481;-84
2023/08/26 11:38:19;;;;;;;1.08;0.80;;;;;;;;;;6213412;23;20018;-84
2023/08/26 11:40:45;;;;;;;2.55;1.20;;;;;;;;;;6214679;23;20087;-84
2023/08/26 11:43:12;;;;;;;0.98;0.70;;;;;;;;;;6213032;23;20016;-84
2023/08/26 11:45:39;;;;;;;1.92;0.95;;;;;;;;;;6215075;23;20027;-86
2023/08/26 11:48:05;;;;;;;3.50;0.80;;;;;;;;;;6213341;23;20020;-84
2023/08/26 11:50:34;;;;;;;1.58;0.90;;;;;;;;;;6213809;23;20070;-84
2023/08/26 11:53:04;;;;;;;1.60;0.82;;;;;;;;;;6213171;23;20020;-84
2023/08/26 11:55:31;;;;;;;2.67;1.45;;;;;;;;;;6240571;23;20019;-87
2023/08/26 11:57:58;;;;;;;2.08;0.85;;;;;;;;;;6213298;23;20015;-86
2023/08/26 12:00:24;;;;;;;1.10;0.80;;;;;;;;;;6241479;23;20286;-85
2023/08/26 12:02:51;;;;;;;1.10;0.90;;;;;;;;;;6213910;23;20414;-86
2023/08/26 12:05:18;;;;;;;0.93;0.77;;;;;;;;;;6213514;23;20503;-85
2023/08/26 12:07:45;;;;;;;1.45;0.90;;;;;;;;;;6213364;23;20346;-87
2023/08/26 12:10:11;;;;;;;1.50;0.90;;;;;;;;;;6212691;23;20345;-86
2023/08/26 12:12:38;;;;;;;2.03;0.90;;;;;;;;;;6214231;23;20441;-84
2023/08/26 12:15:08;;;;;;;1.77;0.90;;;;;;;;;;6240470;23;20079;-86
2023/08/26 12:17:46;;;;;;;2.45;1.20;;;;;;;;;;6213764;23;20039;-86
2023/08/26 12:20:19;;;;;;;1.50;1.00;;;;;;;;;;6187530;23;20050;-87
2023/08/26 12:22:45;;;;;;;2.45;1.00;;;;;;;;;;6213502;23;20393;-86
2023/08/26 12:25:11;;;;;;;1.33;0.98;;;;;;;;;;6213012;23;20122;-85
2023/08/26 12:27:41;;;;;;;1.20;1.10;;;;;;;;;;6214363;23;20020;-88
2023/08/26 12:30:07;;;;;;;1.15;1.13;;;;;;;;;;6213643;23;20020;-86
2023/08/26 12:32:33;;;;;;;1.60;0.80;;;;;;;;;;6213445;23;20091;-84
2023/08/26 12:34:59;;;;;;;1.70;1.02;;;;;;;;;;6213756;23;20054;-83
2023/08/26 12:37:25;;;;;;;2.38;1.50;;;;;;;;;;6213159;23;20016;-84
2023/08/26 12:39:51;;;;;;;1.50;1.05;;;;;;;;;;6239651;23;20012;-87
2023/08/26 12:42:17;;;;;;;1.20;1.10;;;;;;;;;;6215015;23;20074;-93
2023/08/26 12:44:43;;;;;;;1.83;1.17;;;;;;;;;;6214742;23;20012;-86
2023/08/26 12:47:10;;;;;;;1.75;1.33;;;;;;;;;;6239752;23;20027;-85
2023/08/26 12:49:35;;;;;;;1.48;1.20;;;;;;;;;;6213646;23;20016;-87
2023/08/26 12:52:02;;;;;;;2.92;1.25;;;;;;;;;;6207992;23;20016;-86
2023/08/26 12:54:28;;;;;;;1.70;1.17;;;;;;;;;;6207625;23;20021;-87
2023/08/26 12:56:55;;;;;;;2.35;1.17;;;;;;;;;;6207212;23;20020;-85
2023/08/26 12:59:21;;;;;;;1.95;1.30;;;;;;;;;;6208457;23;20099;-88
2023/08/26 13:01:48;;;;;;;2.03;1.38;;;;;;;;;;6211495;23;20013;-92
2023/08/26 13:04:14;;;;;;;1.80;1.25;;;;;;;;;;6208620;23;20076;-90
2023/08/26 13:06:40;;;;;;;2.38;1.23;;;;;;;;;;6209603;23;20017;-89
2023/08/26 13:09:06;;;;;;;3.17;1.35;;;;;;;;;;6208608;23;20052;-87
2023/08/26 13:11:32;;;;;;;1.95;1.40;;;;;;;;;;6209209;23;20043;-90
2023/08/26 13:13:58;;;;;;;1.83;1.10;;;;;;;;;;6211113;23;20016;-89
2023/08/26 13:16:24;;;;;;;1.40;1.20;;;;;;;;;;6210789;23;20017;-89
2023/08/26 13:18:50;;;;;;;2.13;1.10;;;;;;;;;;6209073;23;20008;-91
2023/08/26 13:21:16;;;;;;;2.03;1.55;;;;;;;;;;6208997;23;20051;-91
2023/08/26 13:23:42;;;;;;;1.70;1.58;;;;;;;;;;6209302;23;20016;-93
2023/08/26 13:26:08;;;;;;;1.67;1.58;;;;;;;;;;6185333;23;20016;-89
2023/08/26 13:28:34;;;;;;;2.28;1.65;;;;;;;;;;6208427;23;20020;-88
2023/08/26 13:31:02;;;;;;;2.50;1.40;;;;;;;;;;6211377;23;20016;-88
2023/08/26 13:33:28;;;;;;;2.05;1.45;;;;;;;;;;6212156;23;20017;-94
2023/08/26 13:35:54;;;;;;;2.30;2.00;;;;;;;;;;6211961;23;20017;-90
2023/08/26 13:38:20;;;;;;;2.22;1.80;;;;;;;;;;6210511;23;20415;-91
2023/08/26 13:40:46;;;;;;;2.08;1.85;;;;;;;;;;6211709;23;20013;-90
2023/08/26 13:43:12;;;;;;;2.35;1.70;;;;;;;;;;6210925;23;20017;-91
2023/08/26 13:45:38;;;;;;;1.75;1.50;;;;;;;;;;6211773;23;20352;-91
2023/08/26 13:48:05;;;;;;;1.73;1.63;;;;;;;;;;6217933;23;20017;-92
2023/08/26 13:50:31;;;;;;;2.78;1.75;;;;;;;;;;6215046;23;20020;-92
2023/08/26 13:52:57;;;;;;;2.92;2.00;;;;;;;;;;6185981;23;20048;-90
2023/08/26 13:55:23;;;;;;;2.20;2.00;;;;;;;;;;6211293;23;20047;-91
2023/08/26 13:57:49;;;;;;;2.05;1.92;;;;;;;;;;6212984;23;20082;-89
2023/08/26 14:00:15;;;;;;;2.50;2.30;;;;;;;;;;6210175;23;20020;-86
2023/08/26 14:02:41;;;;;;;2.40;2.20;;;;;;;;;;6210611;23;20382;-89
2023/08/26 14:05:08;;;;;;;3.17;2.78;;;;;;;;;;6208992;23;20080;-90
2023/08/26 14:07:34;;;;;;;4.20;2.10;;;;;;;;;;6212178;23;20054;-91
2023/08/26 14:10:00;;;;;;;2.72;2.00;;;;;;;;;;6209455;23;20326;-91
2023/08/26 14:12:26;;;;;;;2.40;2.05;;;;;;;;;;6210581;23;20020;-91
2023/08/26 14:14:52;;;;;;;3.67;1.85;;;;;;;;;;6209651;23;20315;-91
2023/08/26 14:17:18;;;;;;;3.60;1.88;;;;;;;;;;6209685;23;20020;-89
2023/08/26 14:19:44;;;;;;;2.03;1.90;;;;;;;;;;6211215;23;20051;-89
2023/08/26 14:22:10;;;;;;;2.50;2.22;;;;;;;;;;6210703;23;20016;-88
2023/08/26 14:24:36;;;;;;;2.72;2.20;;;;;;;;;;6209154;23;20016;-87
2023/08/26 14:27:03;;;;;;;3.97;1.90;;;;;;;;;;6208647;23;20052;-85
2023/08/26 14:29:29;;;;;;;2.13;1.92;;;;;;;;;;6211224;23;20016;-88
2023/08/26 14:31:55;;;;;;;2.05;1.95;;;;;;;;;;6210792;23;20063;-85
2023/08/26 14:34:21;;;;;;;1.98;1.77;;;;;;;;;;6211404;23;20090;-86
2023/08/26 14:36:47;;;;;;;1.58;1.27;;;;;;;;;;6209659;23;20024;-87
2023/08/26 14:39:13;;;;;;;1.38;1.00;;;;;;;;;;6209519;23;20431;-89